Triumph V — WDC8297 — position and weather

sailwx.info

Track history (hours):
 
Tides and Currents Weather Stations Pressure Air Temp Water Temp Dewpoint Dewpoint Depression Visibility Wind Speed Wind Dir Waves Ship Positions

Triumph V

Owner: Anchorage Launch Service Co, Portland, OR. More information available from US FCC via Universal Licensing System and Coast Guard Vessel Documentation Center.

Last reported at 2017-Dec-11 16:59 UTC. Time now 2017-Dec-12 02:57 UTC.
Position N 46°04' W 122°53'.

Length 30 m.

MMSI: 367084780.

Date/timePositionNaut miles runAvg speedWind from/ knotsBaromVisibWave heightAir tempDewpointWater temp
2017-Dec-11 16:59N 46°04' W 122°53'2 4.8
2017-Dec-11 16:31N 46°05' W 122°56'0 0.0
2017-Dec-11 16:01N 46°05' W 122°56'1 1.5
2017-Dec-11 15:30N 46°06' W 122°57'2 4.0
2017-Dec-11 15:00N 46°07' W 122°59'1 1.2
2017-Dec-11 14:28N 46°07' W 122°58'4 7.3
2017-Dec-11 13:57N 46°05' W 122°54'5 9.9
2017-Dec-11 13:29N 46°01' W 122°51'0 0.0
2017-Dec-11 12:59N 46°01' W 122°51'0 0.0
2017-Dec-11 12:29N 46°01' W 122°51'0 0.0
2017-Dec-11 11:59N 46°01' W 122°51'0 0.0
2017-Dec-11 11:29N 46°01' W 122°51'0 0.0
2017-Dec-11 10:38N 46°01' W 122°51'0 0.0
2017-Dec-11 10:29N 46°01' W 122°51'0 0.0
2017-Dec-11 09:59N 46°01' W 122°51'0 0.0
2017-Dec-11 09:26N 46°01' W 122°51'0 0.0
2017-Dec-11 08:23N 46°01' W 122°51'1 3.4
2017-Dec-11 08:01N 46°02' W 122°52'1 1.9
2017-Dec-11 07:20N 46°01' W 122°51'0 0.0
2017-Dec-11 06:56N 46°01' W 122°51'0 0.0
2017-Dec-11 06:26N 46°01' W 122°51'0 0.0
2017-Dec-11 05:56N 46°01' W 122°51'0 0.0
2017-Dec-11 05:29N 46°01' W 122°51'0 0.0
2017-Dec-11 04:57N 46°01' W 122°51'0 0.0
2017-Dec-11 04:29N 46°01' W 122°51'0 0.0
2017-Dec-11 03:59N 46°01' W 122°51'0 0.0
2017-Dec-11 03:17N 46°01' W 122°51'0 0.0
2017-Dec-11 02:53N 46°01' W 122°51'0 0.0
2017-Dec-11 02:29N 46°01' W 122°51'0 0.0
2017-Dec-11 01:59N 46°01' W 122°51'0 0.0
2017-Dec-11 01:29N 46°01' W 122°51'0 0.0
2017-Dec-11 00:59N 46°01' W 122°51'0 0.0
2017-Dec-11 00:05N 46°01' W 122°51'0 0.0
2017-Dec-10 23:53N 46°01' W 122°51'0 0.0
2017-Dec-10 23:23N 46°01' W 122°51'0 0.0
2017-Dec-10 22:59N 46°01' W 122°51'0 0.0
2017-Dec-10 22:29N 46°01' W 122°51'0 0.0
2017-Dec-10 21:59N 46°01' W 122°51'0 0.0
2017-Dec-10 21:29N 46°01' W 122°51'0 0.0
2017-Dec-10 20:59N 46°01' W 122°51'0 0.0
2017-Dec-10 20:26N 46°01' W 122°51'0 0.0
2017-Dec-10 19:56N 46°01' W 122°51'0 0.0
2017-Dec-10 19:14N 46°01' W 122°51'0 0.0
2017-Dec-10 18:59N 46°01' W 122°51'0 0.3
2017-Dec-10 18:30N 46°01' W 122°51'4 7.3
2017-Dec-10 17:59N 46°04' W 122°53'0 0.0
2017-Dec-10 17:29N 46°04' W 122°53'0 0.0
2017-Dec-10 16:35N 46°04' W 122°53'0 0.1
2017-Dec-10 16:28N 46°04' W 122°53'4 8.4
2017-Dec-10 16:00N 46°01' W 122°51'0 0.1
2017-Dec-10 15:27N 46°01' W 122°51'0 0.0
2017-Dec-10 14:54N 46°01' W 122°51'0 0.0
2017-Dec-10 14:30N 46°01' W 122°51'0 0.0
2017-Dec-10 13:54N 46°01' W 122°51'1 0.6
2017-Dec-10 13:01N 46°01' W 122°51'017.5
2017-Dec-10 13:00N 46°01' W 122°52'1 1.0
2017-Dec-10 12:25N 46°02' W 122°52'0 0.0
2017-Dec-10 11:58N 46°02' W 122°52'1 2.8
2017-Dec-10 11:29N 46°00' W 122°51'0 0.0
2017-Dec-10 11:00N 46°00' W 122°51'0 0.0
2017-Dec-10 10:27N 46°00' W 122°51'0 0.0
2017-Dec-10 09:57N 46°00' W 122°51'0 0.0
2017-Dec-10 09:24N 46°00' W 122°51'0 0.0
2017-Dec-10 08:54N 46°00' W 122°51'0 0.0
2017-Dec-10 08:30N 46°00' W 122°51'0 0.0
2017-Dec-10 07:36N 46°00' W 122°51'0 0.0
2017-Dec-10 07:27N 46°00' W 122°51'0 0.0
2017-Dec-10 06:51N 46°00' W 122°51'0 0.0
2017-Dec-10 06:27N 46°00' W 122°51'0 0.0
2017-Dec-10 05:57N 46°00' W 122°51'0 0.0
2017-Dec-10 05:27N 46°00' W 122°51'0 0.0
2017-Dec-10 04:57N 46°00' W 122°51'0 0.0
2017-Dec-10 04:30N 46°00' W 122°51'0 0.0
2017-Dec-10 03:57N 46°00' W 122°51'0 0.0
2017-Dec-10 03:27N 46°00' W 122°51'0 0.0
2017-Dec-10 02:57N 46°00' W 122°51'0 0.0
2017-Dec-10 02:30N 46°00' W 122°51'0 0.0
2017-Dec-10 02:00N 46°00' W 122°51'0 0.0
2017-Dec-10 01:30N 46°00' W 122°51'0 0.0
2017-Dec-10 00:57N 46°00' W 122°51'0 0.0
2017-Dec-10 00:30N 46°00' W 122°51'0 0.0
2017-Dec-10 00:00N 46°00' W 122°51'0 0.0
2017-Dec-09 23:30N 46°00' W 122°51'0 0.0
2017-Dec-09 22:57N 46°00' W 122°51'0 0.0
2017-Dec-09 22:30N 46°00' W 122°51'0 0.0
2017-Dec-09 22:00N 46°00' W 122°51'0 0.0
2017-Dec-09 21:27N 46°00' W 122°51'0 0.0
2017-Dec-09 21:00N 46°00' W 122°51'0 0.0
2017-Dec-09 20:30N 46°00' W 122°51'0 0.0
2017-Dec-09 19:51N 46°00' W 122°51'0 0.0
2017-Dec-09 19:30N 46°00' W 122°51'0 0.0
2017-Dec-09 18:45N 46°00' W 122°51'0 0.0
2017-Dec-09 18:30N 46°00' W 122°51'0 0.0
2017-Dec-09 17:54N 46°00' W 122°51'0 0.0
2017-Dec-09 17:24N 46°00' W 122°51'0 0.0
2017-Dec-09 16:57N 46°00' W 122°51'0 0.0
2017-Dec-09 16:30N 46°00' W 122°51'0 0.0
2017-Dec-09 15:45N 46°00' W 122°51'0 0.0
2017-Dec-09 15:27N 46°00' W 122°51'0 0.0
2017-Dec-09 14:57N 46°00' W 122°51'0 0.0
2017-Dec-09 14:18N 46°00' W 122°51'0 0.0
2017-Dec-09 13:45N 46°00' W 122°51'0 0.0
2017-Dec-09 13:27N 46°00' W 122°51'0 0.0
2017-Dec-09 13:00N 46°00' W 122°51'0 0.0
2017-Dec-09 12:24N 46°00' W 122°51'0 0.0
2017-Dec-09 12:00N 46°00' W 122°51'0 0.0
2017-Dec-09 11:30N 46°00' W 122°51'0 0.0
2017-Dec-09 10:57N 46°00' W 122°51'0 0.0
2017-Dec-09 10:30N 46°00' W 122°51'0 0.0
2017-Dec-09 09:54N 46°00' W 122°51'0 0.0
2017-Dec-09 09:30N 46°00' W 122°51'0 0.0
2017-Dec-09 08:57N 46°00' W 122°51'0 0.0
2017-Dec-09 08:30N 46°00' W 122°51'0 0.0
2017-Dec-09 07:57N 46°00' W 122°51'0 0.0
2017-Dec-09 07:30N 46°00' W 122°51'0 0.0
2017-Dec-09 07:00N 46°00' W 122°51'0 0.0
2017-Dec-09 06:06N 46°00' W 122°51'0 0.0
2017-Dec-09 06:00N 46°00' W 122°51'0 0.0
2017-Dec-09 05:27N 46°00' W 122°51'0 0.0
2017-Dec-09 05:00N 46°00' W 122°51'0 0.0
2017-Dec-09 04:27N 46°00' W 122°51'0 0.0
2017-Dec-09 03:54N 46°00' W 122°51'0 0.0
2017-Dec-09 03:30N 46°00' W 122°51'0 0.0
2017-Dec-09 03:00N 46°00' W 122°51'0 0.0
2017-Dec-09 02:30N 46°00' W 122°51'0 0.0
2017-Dec-09 01:42N 46°00' W 122°51'0 0.0
2017-Dec-09 01:30N 46°00' W 122°51'0 0.0
2017-Dec-09 01:00N 46°00' W 122°51'0 0.0
2017-Dec-09 00:30N 46°00' W 122°51'0 0.0
2017-Dec-09 00:00N 46°00' W 122°51'0 0.0
2017-Dec-08 23:30N 46°00' W 122°51'0 0.0
2017-Dec-08 23:00N 46°00' W 122°51'0 0.0
2017-Dec-08 22:27N 46°00' W 122°51'0 0.0
2017-Dec-08 22:00N 46°00' W 122°51'0 0.0
2017-Dec-08 21:24N 46°00' W 122°51'0 0.0
2017-Dec-08 20:57N 46°00' W 122°51'0 0.0
2017-Dec-08 20:27N 46°00' W 122°51'0 0.0
2017-Dec-08 20:00N 46°00' W 122°51'0 0.0
2017-Dec-08 19:21N 46°00' W 122°51'0 0.0
2017-Dec-08 18:54N 46°00' W 122°51'0 0.0
2017-Dec-08 18:27N 46°00' W 122°51'0 0.0
2017-Dec-08 17:57N 46°00' W 122°51'0 0.0
2017-Dec-08 17:24N 46°00' W 122°51'0 0.0
2017-Dec-08 17:00N 46°00' W 122°51'0 0.0
2017-Dec-08 16:30N 46°00' W 122°51'0 0.0
2017-Dec-08 15:57N 46°00' W 122°51'0 0.0
2017-Dec-08 15:30N 46°00' W 122°51'0 0.0
2017-Dec-08 14:57N 46°00' W 122°51'0 0.0
2017-Dec-08 14:27N 46°00' W 122°51'0 0.0
2017-Dec-08 14:01N 46°00' W 122°51'1 2.7
2017-Dec-08 13:30N 46°02' W 122°52'0 0.0
2017-Dec-08 13:00N 46°02' W 122°52'1 2.5
2017-Dec-08 12:30N 46°01' W 122°51'0 0.2
2017-Dec-08 11:58N 46°00' W 122°51'0 0.0
2017-Dec-08 11:19N 46°00' W 122°51'0 0.0
2017-Dec-08 10:46N 46°00' W 122°51'0 0.0
2017-Dec-08 10:28N 46°00' W 122°51'0 0.0
2017-Dec-08 09:58N 46°00' W 122°51'0 0.0
2017-Dec-08 09:28N 46°00' W 122°51'0 0.0
2017-Dec-08 08:16N 46°00' W 122°51'0 0.0
2017-Dec-08 07:49N 46°00' W 122°51'0 0.0
2017-Dec-08 07:25N 46°00' W 122°51'0 0.0
2017-Dec-08 06:58N 46°00' W 122°51'0 0.0
2017-Dec-08 06:25N 46°00' W 122°51'0 0.0
2017-Dec-08 05:58N 46°00' W 122°51'0 0.0
2017-Dec-08 05:28N 46°00' W 122°51'0 0.0
2017-Dec-08 04:55N 46°00' W 122°51'0 0.0
2017-Dec-08 04:25N 46°00' W 122°51'0 0.0
2017-Dec-08 03:58N 46°00' W 122°51'0 0.0
2017-Dec-08 03:28N 46°00' W 122°51'0 0.0
2017-Dec-08 02:55N 46°00' W 122°51'0 0.0
2017-Dec-08 02:28N 46°00' W 122°51'0 0.0
2017-Dec-08 01:55N 46°00' W 122°51'0 0.0
2017-Dec-08 01:28N 46°00' W 122°51'0 0.0
2017-Dec-08 00:58N 46°00' W 122°51'0 0.0
2017-Dec-08 00:22N 46°00' W 122°51'0 0.0
2017-Dec-07 23:58N 46°00' W 122°51'0 0.0
2017-Dec-07 23:13N 46°00' W 122°51'0 0.0
2017-Dec-07 22:58N 46°00' W 122°51'0 0.0
2017-Dec-07 22:28N 46°00' W 122°51'0 0.0
2017-Dec-07 21:55N 46°00' W 122°51'0 0.0
2017-Dec-07 21:28N 46°00' W 122°51'0 0.0
2017-Dec-07 20:49N 46°00' W 122°51'0 0.0
2017-Dec-07 20:22N 46°00' W 122°51'0 0.0
2017-Dec-07 19:58N 46°00' W 122°51'0 0.0
2017-Dec-07 19:28N 46°00' W 122°51'0 0.0
2017-Dec-07 18:58N 46°00' W 122°51'0 0.0
2017-Dec-07 18:28N 46°00' W 122°51'0 0.0
2017-Dec-07 17:49N 46°00' W 122°51'0 0.0
2017-Dec-07 17:04N 46°00' W 122°51'0 0.0
2017-Dec-07 16:58N 46°00' W 122°51'0 0.0
2017-Dec-07 16:25N 46°00' W 122°51'0 0.0
2017-Dec-07 15:58N 46°00' W 122°51'0 0.0
2017-Dec-07 15:28N 46°00' W 122°51'0 0.0
2017-Dec-07 14:58N 46°00' W 122°51'0 0.0
2017-Dec-07 14:28N 46°00' W 122°51'0 0.0
2017-Dec-07 13:58N 46°00' W 122°51'0 0.0
2017-Dec-07 13:28N 46°00' W 122°51'0 0.0
2017-Dec-07 12:58N 46°00' W 122°51'0 0.0
2017-Dec-07 12:28N 46°00' W 122°51'0 0.0
2017-Dec-07 11:58N 46°00' W 122°51'0 0.0
2017-Dec-07 11:28N 46°00' W 122°51'0 0.0
2017-Dec-07 10:55N 46°00' W 122°51'0 0.0
2017-Dec-07 10:28N 46°00' W 122°51'0 0.0
2017-Dec-07 09:55N 46°00' W 122°51'0 0.0
2017-Dec-07 09:28N 46°00' W 122°51'0 0.0
2017-Dec-07 08:52N 46°00' W 122°51'0 0.0
2017-Dec-07 08:16N 46°00' W 122°51'0 0.0
2017-Dec-07 07:58N 46°00' W 122°51'0 0.0
2017-Dec-07 07:25N 46°00' W 122°51'0 0.0
2017-Dec-07 06:52N 46°00' W 122°51'0 0.0
2017-Dec-07 06:28N 46°00' W 122°51'0 0.0
2017-Dec-07 05:58N 46°00' W 122°51'0 0.0
2017-Dec-07 05:28N 46°00' W 122°51'0 0.0
2017-Dec-07 04:58N 46°00' W 122°51'0 0.0
2017-Dec-07 04:19N 46°00' W 122°51'0 0.0
2017-Dec-07 03:58N 46°00' W 122°51'0 0.0
2017-Dec-07 03:28N 46°00' W 122°51'0 0.0
2017-Dec-07 02:37N 46°00' W 122°51'0 0.0
2017-Dec-07 02:16N 46°00' W 122°51'0 0.0
2017-Dec-07 01:55N 46°00' W 122°51'0 0.0
2017-Dec-07 01:28N 46°00' W 122°51'0 0.0
2017-Dec-07 00:58N 46°00' W 122°51'0 0.0
2017-Dec-07 00:28N 46°00' W 122°51'0 0.0
2017-Dec-06 23:55N 46°00' W 122°51'0 0.0
2017-Dec-06 23:22N 46°00' W 122°51'0 0.0
2017-Dec-06 22:58N 46°00' W 122°51'0 0.0
2017-Dec-06 22:25N 46°00' W 122°51'0 0.0
2017-Dec-06 21:58N 46°00' W 122°51'0 0.0
2017-Dec-06 21:28N 46°00' W 122°51'0 0.0
2017-Dec-06 20:40N 46°00' W 122°51'  
2017-Dec-04 10:22N 46°00' W 122°51'0 0.0
2017-Dec-04 09:58N 46°00' W 122°51'0 0.0
2017-Dec-04 09:22N 46°00' W 122°51'0 0.0
2017-Dec-04 08:46N 46°00' W 122°51'0 0.0
2017-Dec-04 08:28N 46°00' W 122°51'0 0.0
2017-Dec-04 07:49N 46°00' W 122°51'0 0.0
2017-Dec-04 07:19N 46°00' W 122°51'0 0.0
2017-Dec-04 06:37N 46°00' W 122°51'0 0.0
2017-Dec-04 06:28N 46°00' W 122°51'0 0.0
2017-Dec-04 05:55N 46°00' W 122°51'0 0.0
2017-Dec-04 05:28N 46°00' W 122°51'0 0.0
2017-Dec-04 04:52N 46°00' W 122°51'0 0.0
2017-Dec-04 04:28N 46°00' W 122°51'1 2.9
2017-Dec-04 03:59N 46°01' W 122°52'612.7
2017-Dec-04 03:30N 46°06' W 122°58'1 1.6
2017-Dec-04 03:00N 46°07' W 122°59'815.2
2017-Dec-04 02:28N 46°01' W 122°51'0 0.2
2017-Dec-04 01:52N 46°00' W 122°51'0 0.0
2017-Dec-04 01:28N 46°00' W 122°51'0 0.0
2017-Dec-04 00:58N 46°00' W 122°51'0 0.0
2017-Dec-04 00:22N 46°00' W 122°51'0 0.0
2017-Dec-03 23:55N 46°00' W 122°51'0 0.0
2017-Dec-03 23:28N 46°00' W 122°51'0 0.0
2017-Dec-03 22:10N 46°00' W 122°51'0 0.0
2017-Dec-03 21:58N 46°00' W 122°51'0 0.0
2017-Dec-03 21:28N 46°00' W 122°51'0 0.0
2017-Dec-03 20:55N 46°00' W 122°51'0 0.0
2017-Dec-03 20:25N 46°00' W 122°51'0 0.0
2017-Dec-03 19:52N 46°00' W 122°51'0 0.0
2017-Dec-03 19:28N 46°00' W 122°51'0 0.0
2017-Dec-03 18:58N 46°00' W 122°51'0 0.0
2017-Dec-03 18:25N 46°00' W 122°51'0 0.0
2017-Dec-03 17:52N 46°00' W 122°51'0 0.0
2017-Dec-03 17:28N 46°00' W 122°51'0 0.0
2017-Dec-03 16:58N 46°00' W 122°51'0 0.0
2017-Dec-03 16:25N 46°00' W 122°51'0 0.0
2017-Dec-03 15:58N 46°00' W 122°51'0 0.0
2017-Dec-03 15:22N 46°00' W 122°51'0 0.0
2017-Dec-03 14:55N 46°00' W 122°51'1 2.1
2017-Dec-03 14:30N 46°01' W 122°52'1 0.8
2017-Dec-03 13:53N 46°02' W 122°52'0 0.1
2017-Dec-03 13:30N 46°02' W 122°52'0 0.1
2017-Dec-03 12:59N 46°02' W 122°52'0 0.0
2017-Dec-03 12:29N 46°02' W 122°52'0 0.0
2017-Dec-03 11:59N 46°02' W 122°52'0 0.3
2017-Dec-03 11:29N 46°01' W 122°52'0 0.3
2017-Dec-03 10:59N 46°02' W 122°52'0 0.3
2017-Dec-03 10:23N 46°02' W 122°52'0 0.0
2017-Dec-03 09:59N 46°02' W 122°52'2 3.1
2017-Dec-03 09:29N 46°00' W 122°51'0 0.0
2017-Dec-03 08:56N 46°00' W 122°51'0 0.0
2017-Dec-03 08:26N 46°00' W 122°51'0 0.0
2017-Dec-03 07:53N 46°00' W 122°51'0 0.0
2017-Dec-03 07:29N 46°00' W 122°51'0 0.0
2017-Dec-03 06:59N 46°00' W 122°51'0 0.0
2017-Dec-03 06:26N 46°00' W 122°51'0 0.0
2017-Dec-03 05:59N 46°00' W 122°51'0 0.0
2017-Dec-03 05:26N 46°00' W 122°51'0 0.0
2017-Dec-03 04:56N 46°00' W 122°51'0 0.0
2017-Dec-03 04:29N 46°00' W 122°51'0 0.0
2017-Dec-03 03:59N 46°00' W 122°51'0 0.0
2017-Dec-03 03:29N 46°00' W 122°51'0 0.0
2017-Dec-03 02:59N 46°00' W 122°51'0 0.0
2017-Dec-03 02:26N 46°00' W 122°51'0 0.0
2017-Dec-03 01:53N 46°00' W 122°51'0 0.0
2017-Dec-03 01:23N 46°00' W 122°51'0 0.0
2017-Dec-03 00:59N 46°00' W 122°51'0 0.0
2017-Dec-03 00:29N 46°00' W 122°51'0 0.0
2017-Dec-02 23:56N 46°00' W 122°51'0 0.0
2017-Dec-02 23:29N 46°00' W 122°51'0 0.0
2017-Dec-02 22:53N 46°00' W 122°51'0 0.0
2017-Dec-02 22:29N 46°00' W 122°51'0 0.0
2017-Dec-02 21:59N 46°00' W 122°51'0 0.0
2017-Dec-02 21:29N 46°00' W 122°51'0 0.0
2017-Dec-02 20:59N 46°00' W 122°51'0 0.0
2017-Dec-02 20:27N 46°00' W 122°51'0 0.0
2017-Dec-02 19:56N 46°00' W 122°51'0 0.0
2017-Dec-02 19:20N 46°00' W 122°51'0 0.0
2017-Dec-02 18:50N 46°00' W 122°51'0 0.0
2017-Dec-02 18:29N 46°00' W 122°51'0 0.0
2017-Dec-02 17:50N 46°00' W 122°51'0 0.0
2017-Dec-02 17:29N 46°00' W 122°51'0 0.0
2017-Dec-02 16:56N 46°00' W 122°51'0 0.0
2017-Dec-02 16:29N 46°00' W 122°51'0 0.0
2017-Dec-02 15:59N 46°00' W 122°51'0 0.0
2017-Dec-02 15:26N 46°00' W 122°51'0 0.0
2017-Dec-02 14:56N 46°00' W 122°51'0 0.0
2017-Dec-02 14:26N 46°00' W 122°51'0 0.0
2017-Dec-02 13:47N 46°00' W 122°51'0 0.0
2017-Dec-02 13:29N 46°00' W 122°51'0 0.0
2017-Dec-02 12:59N 46°00' W 122°51'0 0.0
2017-Dec-02 12:26N 46°00' W 122°51'0 0.0
2017-Dec-02 11:59N 46°00' W 122°51'0 0.0
2017-Dec-02 11:26N 46°00' W 122°51'0 0.0
2017-Dec-02 10:56N 46°00' W 122°51'0 0.0
2017-Dec-02 10:29N 46°00' W 122°51'0 0.0
2017-Dec-02 09:56N 46°00' W 122°51'0 0.0
2017-Dec-02 09:29N 46°00' W 122°51'0 0.0
2017-Dec-02 08:53N 46°00' W 122°51'0 0.0
2017-Dec-02 08:14N 46°00' W 122°51'0 0.0
2017-Dec-02 07:59N 46°00' W 122°51'0 0.0
2017-Dec-02 07:17N 46°00' W 122°51'0 0.0
2017-Dec-02 06:59N 46°00' W 122°51'0 0.0
2017-Dec-02 06:26N 46°00' W 122°51'0 0.0
2017-Dec-02 05:59N 46°00' W 122°51'0 0.0
2017-Dec-02 05:29N 46°00' W 122°51'0 0.0
2017-Dec-02 04:59N 46°00' W 122°51'0 0.0
2017-Dec-02 04:29N 46°00' W 122°51'0 0.0
2017-Dec-02 03:56N 46°00' W 122°51'0 0.0
2017-Dec-02 03:29N 46°00' W 122°51'0 0.0
2017-Dec-02 02:50N 46°00' W 122°51'0 0.0
2017-Dec-02 02:29N 46°00' W 122°51'0 0.0
2017-Dec-02 01:56N 46°00' W 122°51'0 0.0
2017-Dec-02 01:29N 46°00' W 122°51'0 0.0
2017-Dec-02 00:56N 46°00' W 122°51'0 0.0
2017-Dec-02 00:23N 46°00' W 122°51'0 0.0
2017-Dec-01 23:59N 46°00' W 122°51'0 0.0
2017-Dec-01 23:29N 46°00' W 122°51'0 0.0
2017-Dec-01 22:59N 46°00' W 122°51'0 0.0
2017-Dec-01 22:29N 46°00' W 122°51'0 0.0
2017-Dec-01 21:53N 46°00' W 122°51'0 0.0
2017-Dec-01 21:23N 46°00' W 122°51'0 0.0
2017-Dec-01 20:56N 46°00' W 122°51'0 0.0
2017-Dec-01 20:26N 46°00' W 122°51'0 0.0
2017-Dec-01 19:56N 46°00' W 122°51'0 0.0
2017-Dec-01 19:23N 46°00' W 122°51'0 0.0
2017-Dec-01 18:47N 46°00' W 122°51'0 0.0
2017-Dec-01 18:17N 46°00' W 122°51'0 0.0
2017-Dec-01 17:59N 46°00' W 122°51'0 0.0
2017-Dec-01 17:26N 46°00' W 122°51'  
Track history (hours):
 
Tides and Currents Weather Stations Pressure Air Temp Water Temp Dewpoint Dewpoint Depression Visibility Wind Speed Wind Dir Waves Ship Positions

Triumph V

Owner: Anchorage Launch Service Co, Portland, OR. More information available from US FCC via Universal Licensing System and Coast Guard Vessel Documentation Center.

Last reported at 2017-Dec-11 16:59 UTC. Time now 2017-Dec-12 02:57 UTC.
Position N 46°04' W 122°53'.

Length 30 m.

MMSI: 367084780.

Date/timePositionNaut miles runAvg speedWind from/ knotsBaromVisibWave heightAir tempDewpointWater temp
2017-Dec-11 16:59N 46°04' W 122°53'2 4.8
2017-Dec-11 16:31N 46°05' W 122°56'0 0.0
2017-Dec-11 16:01N 46°05' W 122°56'1 1.5
2017-Dec-11 15:30N 46°06' W 122°57'2 4.0
2017-Dec-11 15:00N 46°07' W 122°59'1 1.2
2017-Dec-11 14:28N 46°07' W 122°58'4 7.3
2017-Dec-11 13:57N 46°05' W 122°54'5 9.9
2017-Dec-11 13:29N 46°01' W 122°51'0 0.0
2017-Dec-11 12:59N 46°01' W 122°51'0 0.0
2017-Dec-11 12:29N 46°01' W 122°51'0 0.0
2017-Dec-11 11:59N 46°01' W 122°51'0 0.0
2017-Dec-11 11:29N 46°01' W 122°51'0 0.0
2017-Dec-11 10:38N 46°01' W 122°51'0 0.0
2017-Dec-11 10:29N 46°01' W 122°51'0 0.0
2017-Dec-11 09:59N 46°01' W 122°51'0 0.0
2017-Dec-11 09:26N 46°01' W 122°51'0 0.0
2017-Dec-11 08:23N 46°01' W 122°51'1 3.4
2017-Dec-11 08:01N 46°02' W 122°52'1 1.9
2017-Dec-11 07:20N 46°01' W 122°51'0 0.0
2017-Dec-11 06:56N 46°01' W 122°51'0 0.0
2017-Dec-11 06:26N 46°01' W 122°51'0 0.0
2017-Dec-11 05:56N 46°01' W 122°51'0 0.0
2017-Dec-11 05:29N 46°01' W 122°51'0 0.0
2017-Dec-11 04:57N 46°01' W 122°51'0 0.0
2017-Dec-11 04:29N 46°01' W 122°51'0 0.0
2017-Dec-11 03:59N 46°01' W 122°51'0 0.0
2017-Dec-11 03:17N 46°01' W 122°51'0 0.0
2017-Dec-11 02:53N 46°01' W 122°51'0 0.0
2017-Dec-11 02:29N 46°01' W 122°51'0 0.0
2017-Dec-11 01:59N 46°01' W 122°51'0 0.0
2017-Dec-11 01:29N 46°01' W 122°51'0 0.0
2017-Dec-11 00:59N 46°01' W 122°51'0 0.0
2017-Dec-11 00:05N 46°01' W 122°51'0 0.0
2017-Dec-10 23:53N 46°01' W 122°51'0 0.0
2017-Dec-10 23:23N 46°01' W 122°51'0 0.0
2017-Dec-10 22:59N 46°01' W 122°51'0 0.0
2017-Dec-10 22:29N 46°01' W 122°51'0 0.0
2017-Dec-10 21:59N 46°01' W 122°51'0 0.0
2017-Dec-10 21:29N 46°01' W 122°51'0 0.0
2017-Dec-10 20:59N 46°01' W 122°51'0 0.0
2017-Dec-10 20:26N 46°01' W 122°51'0 0.0
2017-Dec-10 19:56N 46°01' W 122°51'0 0.0
2017-Dec-10 19:14N 46°01' W 122°51'0 0.0
2017-Dec-10 18:59N 46°01' W 122°51'0 0.3
2017-Dec-10 18:30N 46°01' W 122°51'4 7.3
2017-Dec-10 17:59N 46°04' W 122°53'0 0.0
2017-Dec-10 17:29N 46°04' W 122°53'0 0.0
2017-Dec-10 16:35N 46°04' W 122°53'0 0.1
2017-Dec-10 16:28N 46°04' W 122°53'4 8.4
2017-Dec-10 16:00N 46°01' W 122°51'0 0.1
2017-Dec-10 15:27N 46°01' W 122°51'0 0.0
2017-Dec-10 14:54N 46°01' W 122°51'0 0.0
2017-Dec-10 14:30N 46°01' W 122°51'0 0.0
2017-Dec-10 13:54N 46°01' W 122°51'1 0.6
2017-Dec-10 13:01N 46°01' W 122°51'017.5
2017-Dec-10 13:00N 46°01' W 122°52'1 1.0
2017-Dec-10 12:25N 46°02' W 122°52'0 0.0
2017-Dec-10 11:58N 46°02' W 122°52'1 2.8
2017-Dec-10 11:29N 46°00' W 122°51'0 0.0
2017-Dec-10 11:00N 46°00' W 122°51'0 0.0
2017-Dec-10 10:27N 46°00' W 122°51'0 0.0
2017-Dec-10 09:57N 46°00' W 122°51'0 0.0
2017-Dec-10 09:24N 46°00' W 122°51'0 0.0
2017-Dec-10 08:54N 46°00' W 122°51'0 0.0
2017-Dec-10 08:30N 46°00' W 122°51'0 0.0
2017-Dec-10 07:36N 46°00' W 122°51'0 0.0
2017-Dec-10 07:27N 46°00' W 122°51'0 0.0
2017-Dec-10 06:51N 46°00' W 122°51'0 0.0
2017-Dec-10 06:27N 46°00' W 122°51'0 0.0
2017-Dec-10 05:57N 46°00' W 122°51'0 0.0
2017-Dec-10 05:27N 46°00' W 122°51'0 0.0
2017-Dec-10 04:57N 46°00' W 122°51'0 0.0
2017-Dec-10 04:30N 46°00' W 122°51'0 0.0
2017-Dec-10 03:57N 46°00' W 122°51'0 0.0
2017-Dec-10 03:27N 46°00' W 122°51'0 0.0
2017-Dec-10 02:57N 46°00' W 122°51'0 0.0
2017-Dec-10 02:30N 46°00' W 122°51'0 0.0
2017-Dec-10 02:00N 46°00' W 122°51'0 0.0
2017-Dec-10 01:30N 46°00' W 122°51'0 0.0
2017-Dec-10 00:57N 46°00' W 122°51'0 0.0
2017-Dec-10 00:30N 46°00' W 122°51'0 0.0
2017-Dec-10 00:00N 46°00' W 122°51'0 0.0
2017-Dec-09 23:30N 46°00' W 122°51'0 0.0
2017-Dec-09 22:57N 46°00' W 122°51'0 0.0
2017-Dec-09 22:30N 46°00' W 122°51'0 0.0
2017-Dec-09 22:00N 46°00' W 122°51'0 0.0
2017-Dec-09 21:27N 46°00' W 122°51'0 0.0
2017-Dec-09 21:00N 46°00' W 122°51'0 0.0
2017-Dec-09 20:30N 46°00' W 122°51'0 0.0
2017-Dec-09 19:51N 46°00' W 122°51'0 0.0
2017-Dec-09 19:30N 46°00' W 122°51'0 0.0
2017-Dec-09 18:45N 46°00' W 122°51'0 0.0
2017-Dec-09 18:30N 46°00' W 122°51'0 0.0
2017-Dec-09 17:54N 46°00' W 122°51'0 0.0
2017-Dec-09 17:24N 46°00' W 122°51'0 0.0
2017-Dec-09 16:57N 46°00' W 122°51'0 0.0
2017-Dec-09 16:30N 46°00' W 122°51'0 0.0
2017-Dec-09 15:45N 46°00' W 122°51'0 0.0
2017-Dec-09 15:27N 46°00' W 122°51'0 0.0
2017-Dec-09 14:57N 46°00' W 122°51'0 0.0
2017-Dec-09 14:18N 46°00' W 122°51'0 0.0
2017-Dec-09 13:45N 46°00' W 122°51'0 0.0
2017-Dec-09 13:27N 46°00' W 122°51'0 0.0
2017-Dec-09 13:00N 46°00' W 122°51'0 0.0
2017-Dec-09 12:24N 46°00' W 122°51'0 0.0
2017-Dec-09 12:00N 46°00' W 122°51'0 0.0
2017-Dec-09 11:30N 46°00' W 122°51'0 0.0
2017-Dec-09 10:57N 46°00' W 122°51'0 0.0
2017-Dec-09 10:30N 46°00' W 122°51'0 0.0
2017-Dec-09 09:54N 46°00' W 122°51'0 0.0
2017-Dec-09 09:30N 46°00' W 122°51'0 0.0
2017-Dec-09 08:57N 46°00' W 122°51'0 0.0
2017-Dec-09 08:30N 46°00' W 122°51'0 0.0
2017-Dec-09 07:57N 46°00' W 122°51'0 0.0
2017-Dec-09 07:30N 46°00' W 122°51'0 0.0
2017-Dec-09 07:00N 46°00' W 122°51'0 0.0
2017-Dec-09 06:06N 46°00' W 122°51'0 0.0
2017-Dec-09 06:00N 46°00' W 122°51'0 0.0
2017-Dec-09 05:27N 46°00' W 122°51'0 0.0
2017-Dec-09 05:00N 46°00' W 122°51'0 0.0
2017-Dec-09 04:27N 46°00' W 122°51'0 0.0
2017-Dec-09 03:54N 46°00' W 122°51'0 0.0
2017-Dec-09 03:30N 46°00' W 122°51'0 0.0
2017-Dec-09 03:00N 46°00' W 122°51'0 0.0
2017-Dec-09 02:30N 46°00' W 122°51'0 0.0
2017-Dec-09 01:42N 46°00' W 122°51'0 0.0
2017-Dec-09 01:30N 46°00' W 122°51'0 0.0
2017-Dec-09 01:00N 46°00' W 122°51'0 0.0
2017-Dec-09 00:30N 46°00' W 122°51'0 0.0
2017-Dec-09 00:00N 46°00' W 122°51'0 0.0
2017-Dec-08 23:30N 46°00' W 122°51'0 0.0
2017-Dec-08 23:00N 46°00' W 122°51'0 0.0
2017-Dec-08 22:27N 46°00' W 122°51'0 0.0
2017-Dec-08 22:00N 46°00' W 122°51'0 0.0
2017-Dec-08 21:24N 46°00' W 122°51'0 0.0
2017-Dec-08 20:57N 46°00' W 122°51'0 0.0
2017-Dec-08 20:27N 46°00' W 122°51'0 0.0
2017-Dec-08 20:00N 46°00' W 122°51'0 0.0
2017-Dec-08 19:21N 46°00' W 122°51'0 0.0
2017-Dec-08 18:54N 46°00' W 122°51'0 0.0
2017-Dec-08 18:27N 46°00' W 122°51'0 0.0
2017-Dec-08 17:57N 46°00' W 122°51'0 0.0
2017-Dec-08 17:24N 46°00' W 122°51'0 0.0
2017-Dec-08 17:00N 46°00' W 122°51'0 0.0
2017-Dec-08 16:30N 46°00' W 122°51'0 0.0
2017-Dec-08 15:57N 46°00' W 122°51'0 0.0
2017-Dec-08 15:30N 46°00' W 122°51'0 0.0
2017-Dec-08 14:57N 46°00' W 122°51'0 0.0
2017-Dec-08 14:27N 46°00' W 122°51'0 0.0
2017-Dec-08 14:01N 46°00' W 122°51'1 2.7
2017-Dec-08 13:30N 46°02' W 122°52'0 0.0
2017-Dec-08 13:00N 46°02' W 122°52'1 2.5
2017-Dec-08 12:30N 46°01' W 122°51'0 0.2
2017-Dec-08 11:58N 46°00' W 122°51'0 0.0
2017-Dec-08 11:19N 46°00' W 122°51'0 0.0
2017-Dec-08 10:46N 46°00' W 122°51'0 0.0
2017-Dec-08 10:28N 46°00' W 122°51'0 0.0
2017-Dec-08 09:58N 46°00' W 122°51'0 0.0
2017-Dec-08 09:28N 46°00' W 122°51'0 0.0
2017-Dec-08 08:16N 46°00' W 122°51'0 0.0
2017-Dec-08 07:49N 46°00' W 122°51'0 0.0
2017-Dec-08 07:25N 46°00' W 122°51'0 0.0
2017-Dec-08 06:58N 46°00' W 122°51'0 0.0
2017-Dec-08 06:25N 46°00' W 122°51'0 0.0
2017-Dec-08 05:58N 46°00' W 122°51'0 0.0
2017-Dec-08 05:28N 46°00' W 122°51'0 0.0
2017-Dec-08 04:55N 46°00' W 122°51'0 0.0
2017-Dec-08 04:25N 46°00' W 122°51'0 0.0
2017-Dec-08 03:58N 46°00' W 122°51'0 0.0
2017-Dec-08 03:28N 46°00' W 122°51'0 0.0
2017-Dec-08 02:55N 46°00' W 122°51'0 0.0
2017-Dec-08 02:28N 46°00' W 122°51'0 0.0
2017-Dec-08 01:55N 46°00' W 122°51'0 0.0
2017-Dec-08 01:28N 46°00' W 122°51'0 0.0
2017-Dec-08 00:58N 46°00' W 122°51'0 0.0
2017-Dec-08 00:22N 46°00' W 122°51'0 0.0
2017-Dec-07 23:58N 46°00' W 122°51'0 0.0
2017-Dec-07 23:13N 46°00' W 122°51'0 0.0
2017-Dec-07 22:58N 46°00' W 122°51'0 0.0
2017-Dec-07 22:28N 46°00' W 122°51'0 0.0
2017-Dec-07 21:55N 46°00' W 122°51'0 0.0
2017-Dec-07 21:28N 46°00' W 122°51'0 0.0
2017-Dec-07 20:49N 46°00' W 122°51'0 0.0
2017-Dec-07 20:22N 46°00' W 122°51'0 0.0
2017-Dec-07 19:58N 46°00' W 122°51'0 0.0
2017-Dec-07 19:28N 46°00' W 122°51'0 0.0
2017-Dec-07 18:58N 46°00' W 122°51'0 0.0
2017-Dec-07 18:28N 46°00' W 122°51'0 0.0
2017-Dec-07 17:49N 46°00' W 122°51'0 0.0
2017-Dec-07 17:04N 46°00' W 122°51'0 0.0
2017-Dec-07 16:58N 46°00' W 122°51'0 0.0
2017-Dec-07 16:25N 46°00' W 122°51'0 0.0
2017-Dec-07 15:58N 46°00' W 122°51'0 0.0
2017-Dec-07 15:28N 46°00' W 122°51'0 0.0
2017-Dec-07 14:58N 46°00' W 122°51'0 0.0
2017-Dec-07 14:28N 46°00' W 122°51'0 0.0
2017-Dec-07 13:58N 46°00' W 122°51'0 0.0
2017-Dec-07 13:28N 46°00' W 122°51'0 0.0
2017-Dec-07 12:58N 46°00' W 122°51'0 0.0
2017-Dec-07 12:28N 46°00' W 122°51'0 0.0
2017-Dec-07 11:58N 46°00' W 122°51'0 0.0
2017-Dec-07 11:28N 46°00' W 122°51'0 0.0
2017-Dec-07 10:55N 46°00' W 122°51'0 0.0
2017-Dec-07 10:28N 46°00' W 122°51'0 0.0
2017-Dec-07 09:55N 46°00' W 122°51'0 0.0
2017-Dec-07 09:28N 46°00' W 122°51'0 0.0
2017-Dec-07 08:52N 46°00' W 122°51'0 0.0
2017-Dec-07 08:16N 46°00' W 122°51'0 0.0
2017-Dec-07 07:58N 46°00' W 122°51'0 0.0
2017-Dec-07 07:25N 46°00' W 122°51'0 0.0
2017-Dec-07 06:52N 46°00' W 122°51'0 0.0
2017-Dec-07 06:28N 46°00' W 122°51'0 0.0
2017-Dec-07 05:58N 46°00' W 122°51'0 0.0
2017-Dec-07 05:28N 46°00' W 122°51'0 0.0
2017-Dec-07 04:58N 46°00' W 122°51'0 0.0
2017-Dec-07 04:19N 46°00' W 122°51'0 0.0
2017-Dec-07 03:58N 46°00' W 122°51'0 0.0
2017-Dec-07 03:28N 46°00' W 122°51'0 0.0
2017-Dec-07 02:37N 46°00' W 122°51'0 0.0
2017-Dec-07 02:16N 46°00' W 122°51'0 0.0
2017-Dec-07 01:55N 46°00' W 122°51'0 0.0
2017-Dec-07 01:28N 46°00' W 122°51'0 0.0
2017-Dec-07 00:58N 46°00' W 122°51'0 0.0
2017-Dec-07 00:28N 46°00' W 122°51'0 0.0
2017-Dec-06 23:55N 46°00' W 122°51'0 0.0
2017-Dec-06 23:22N 46°00' W 122°51'0 0.0
2017-Dec-06 22:58N 46°00' W 122°51'0 0.0
2017-Dec-06 22:25N 46°00' W 122°51'0 0.0
2017-Dec-06 21:58N 46°00' W 122°51'0 0.0
2017-Dec-06 21:28N 46°00' W 122°51'0 0.0
2017-Dec-06 20:40N 46°00' W 122°51'  
2017-Dec-04 10:22N 46°00' W 122°51'0 0.0
2017-Dec-04 09:58N 46°00' W 122°51'0 0.0
2017-Dec-04 09:22N 46°00' W 122°51'0 0.0
2017-Dec-04 08:46N 46°00' W 122°51'0 0.0
2017-Dec-04 08:28N 46°00' W 122°51'0 0.0
2017-Dec-04 07:49N 46°00' W 122°51'0 0.0
2017-Dec-04 07:19N 46°00' W 122°51'0 0.0
2017-Dec-04 06:37N 46°00' W 122°51'0 0.0
2017-Dec-04 06:28N 46°00' W 122°51'0 0.0
2017-Dec-04 05:55N 46°00' W 122°51'0 0.0
2017-Dec-04 05:28N 46°00' W 122°51'0 0.0
2017-Dec-04 04:52N 46°00' W 122°51'0 0.0
2017-Dec-04 04:28N 46°00' W 122°51'1 2.9
2017-Dec-04 03:59N 46°01' W 122°52'612.7
2017-Dec-04 03:30N 46°06' W 122°58'1 1.6
2017-Dec-04 03:00N 46°07' W 122°59'815.2
2017-Dec-04 02:28N 46°01' W 122°51'0 0.2
2017-Dec-04 01:52N 46°00' W 122°51'0 0.0
2017-Dec-04 01:28N 46°00' W 122°51'0 0.0
2017-Dec-04 00:58N 46°00' W 122°51'0 0.0
2017-Dec-04 00:22N 46°00' W 122°51'0 0.0
2017-Dec-03 23:55N 46°00' W 122°51'0 0.0
2017-Dec-03 23:28N 46°00' W 122°51'0 0.0
2017-Dec-03 22:10N 46°00' W 122°51'0 0.0
2017-Dec-03 21:58N 46°00' W 122°51'0 0.0
2017-Dec-03 21:28N 46°00' W 122°51'0 0.0
2017-Dec-03 20:55N 46°00' W 122°51'0 0.0
2017-Dec-03 20:25N 46°00' W 122°51'0 0.0
2017-Dec-03 19:52N 46°00' W 122°51'0 0.0
2017-Dec-03 19:28N 46°00' W 122°51'0 0.0
2017-Dec-03 18:58N 46°00' W 122°51'0 0.0
2017-Dec-03 18:25N 46°00' W 122°51'0 0.0
2017-Dec-03 17:52N 46°00' W 122°51'0 0.0
2017-Dec-03 17:28N 46°00' W 122°51'0 0.0
2017-Dec-03 16:58N 46°00' W 122°51'0 0.0
2017-Dec-03 16:25N 46°00' W 122°51'0 0.0
2017-Dec-03 15:58N 46°00' W 122°51'0 0.0
2017-Dec-03 15:22N 46°00' W 122°51'0 0.0
2017-Dec-03 14:55N 46°00' W 122°51'1 2.1
2017-Dec-03 14:30N 46°01' W 122°52'1 0.8
2017-Dec-03 13:53N 46°02' W 122°52'0 0.1
2017-Dec-03 13:30N 46°02' W 122°52'0 0.1
2017-Dec-03 12:59N 46°02' W 122°52'0 0.0
2017-Dec-03 12:29N 46°02' W 122°52'0 0.0
2017-Dec-03 11:59N 46°02' W 122°52'0 0.3
2017-Dec-03 11:29N 46°01' W 122°52'0 0.3
2017-Dec-03 10:59N 46°02' W 122°52'0 0.3
2017-Dec-03 10:23N 46°02' W 122°52'0 0.0
2017-Dec-03 09:59N 46°02' W 122°52'2 3.1
2017-Dec-03 09:29N 46°00' W 122°51'0 0.0
2017-Dec-03 08:56N 46°00' W 122°51'0 0.0
2017-Dec-03 08:26N 46°00' W 122°51'0 0.0
2017-Dec-03 07:53N 46°00' W 122°51'0 0.0
2017-Dec-03 07:29N 46°00' W 122°51'0 0.0
2017-Dec-03 06:59N 46°00' W 122°51'0 0.0
2017-Dec-03 06:26N 46°00' W 122°51'0 0.0
2017-Dec-03 05:59N 46°00' W 122°51'0 0.0
2017-Dec-03 05:26N 46°00' W 122°51'0 0.0
2017-Dec-03 04:56N 46°00' W 122°51'0 0.0
2017-Dec-03 04:29N 46°00' W 122°51'0 0.0
2017-Dec-03 03:59N 46°00' W 122°51'0 0.0
2017-Dec-03 03:29N 46°00' W 122°51'0 0.0
2017-Dec-03 02:59N 46°00' W 122°51'0 0.0
2017-Dec-03 02:26N 46°00' W 122°51'0 0.0
2017-Dec-03 01:53N 46°00' W 122°51'0 0.0
2017-Dec-03 01:23N 46°00' W 122°51'0 0.0
2017-Dec-03 00:59N 46°00' W 122°51'0 0.0
2017-Dec-03 00:29N 46°00' W 122°51'0 0.0
2017-Dec-02 23:56N 46°00' W 122°51'0 0.0
2017-Dec-02 23:29N 46°00' W 122°51'0 0.0
2017-Dec-02 22:53N 46°00' W 122°51'0 0.0
2017-Dec-02 22:29N 46°00' W 122°51'0 0.0
2017-Dec-02 21:59N 46°00' W 122°51'0 0.0
2017-Dec-02 21:29N 46°00' W 122°51'0 0.0
2017-Dec-02 20:59N 46°00' W 122°51'0 0.0
2017-Dec-02 20:27N 46°00' W 122°51'0 0.0
2017-Dec-02 19:56N 46°00' W 122°51'0 0.0
2017-Dec-02 19:20N 46°00' W 122°51'0 0.0
2017-Dec-02 18:50N 46°00' W 122°51'0 0.0
2017-Dec-02 18:29N 46°00' W 122°51'0 0.0
2017-Dec-02 17:50N 46°00' W 122°51'0 0.0
2017-Dec-02 17:29N 46°00' W 122°51'0 0.0
2017-Dec-02 16:56N 46°00' W 122°51'0 0.0
2017-Dec-02 16:29N 46°00' W 122°51'0 0.0
2017-Dec-02 15:59N 46°00' W 122°51'0 0.0
2017-Dec-02 15:26N 46°00' W 122°51'0 0.0
2017-Dec-02 14:56N 46°00' W 122°51'0 0.0
2017-Dec-02 14:26N 46°00' W 122°51'0 0.0
2017-Dec-02 13:47N 46°00' W 122°51'0 0.0
2017-Dec-02 13:29N 46°00' W 122°51'0 0.0
2017-Dec-02 12:59N 46°00' W 122°51'0 0.0
2017-Dec-02 12:26N 46°00' W 122°51'0 0.0
2017-Dec-02 11:59N 46°00' W 122°51'0 0.0
2017-Dec-02 11:26N 46°00' W 122°51'0 0.0
2017-Dec-02 10:56N 46°00' W 122°51'0 0.0
2017-Dec-02 10:29N 46°00' W 122°51'0 0.0
2017-Dec-02 09:56N 46°00' W 122°51'0 0.0
2017-Dec-02 09:29N 46°00' W 122°51'0 0.0
2017-Dec-02 08:53N 46°00' W 122°51'0 0.0
2017-Dec-02 08:14N 46°00' W 122°51'0 0.0
2017-Dec-02 07:59N 46°00' W 122°51'0 0.0
2017-Dec-02 07:17N 46°00' W 122°51'0 0.0
2017-Dec-02 06:59N 46°00' W 122°51'0 0.0
2017-Dec-02 06:26N 46°00' W 122°51'0 0.0
2017-Dec-02 05:59N 46°00' W 122°51'0 0.0
2017-Dec-02 05:29N 46°00' W 122°51'0 0.0
2017-Dec-02 04:59N 46°00' W 122°51'0 0.0
2017-Dec-02 04:29N 46°00' W 122°51'0 0.0
2017-Dec-02 03:56N 46°00' W 122°51'0 0.0
2017-Dec-02 03:29N 46°00' W 122°51'0 0.0
2017-Dec-02 02:50N 46°00' W 122°51'0 0.0
2017-Dec-02 02:29N 46°00' W 122°51'0 0.0
2017-Dec-02 01:56N 46°00' W 122°51'0 0.0
2017-Dec-02 01:29N 46°00' W 122°51'0 0.0
2017-Dec-02 00:56N 46°00' W 122°51'0 0.0
2017-Dec-02 00:23N 46°00' W 122°51'0 0.0
2017-Dec-01 23:59N 46°00' W 122°51'0 0.0
2017-Dec-01 23:29N 46°00' W 122°51'0 0.0
2017-Dec-01 22:59N 46°00' W 122°51'0 0.0
2017-Dec-01 22:29N 46°00' W 122°51'0 0.0
2017-Dec-01 21:53N 46°00' W 122°51'0 0.0
2017-Dec-01 21:23N 46°00' W 122°51'0 0.0
2017-Dec-01 20:56N 46°00' W 122°51'0 0.0
2017-Dec-01 20:26N 46°00' W 122°51'0 0.0
2017-Dec-01 19:56N 46°00' W 122°51'0 0.0
2017-Dec-01 19:23N 46°00' W 122°51'0 0.0
2017-Dec-01 18:47N 46°00' W 122°51'0 0.0
2017-Dec-01 18:17N 46°00' W 122°51'0 0.0
2017-Dec-01 17:59N 46°00' W 122°51'0 0.0
2017-Dec-01 17:26N 46°00' W 122°51'  

Dump ship's entire track history